createdAt,value
2022-12-05T00:02:15.977Z,-0.47
2022-12-05T00:04:55.847Z,-0.47
2022-12-05T00:07:25.732Z,-0.50
2022-12-05T00:09:58.999Z,-0.52
2022-12-05T00:12:29.564Z,-0.53
2022-12-05T00:14:59.133Z,-0.56
2022-12-05T00:17:40.566Z,-0.57
2022-12-05T00:20:10.890Z,-0.57
2022-12-05T00:22:43.716Z,-0.55
2022-12-05T00:25:31.971Z,-0.55
2022-12-05T00:28:04.928Z,-0.58
2022-12-05T00:30:37.624Z,-0.59
2022-12-05T00:33:14.391Z,-0.59
2022-12-05T00:35:49.319Z,-0.59
2022-12-05T00:42:33.223Z,-0.60
2022-12-05T00:45:23.883Z,-0.62
2022-12-05T00:47:58.999Z,-0.63
2022-12-05T00:50:38.560Z,-0.65
2022-12-05T00:53:08.549Z,-0.65
2022-12-05T00:55:38.585Z,-0.66
2022-12-05T00:58:08.507Z,-0.66
2022-12-05T01:00:38.378Z,-0.64
2022-12-05T01:03:09.043Z,-0.64
2022-12-05T01:05:37.779Z,-0.65
2022-12-05T01:08:08.778Z,-0.66
2022-12-05T01:10:38.222Z,-0.66
2022-12-05T01:13:08.397Z,-0.65
2022-12-05T01:15:38.482Z,-0.63
2022-12-05T01:18:10.502Z,-0.64
2022-12-05T01:20:45.007Z,-0.63
2022-12-05T01:23:15.877Z,-0.63
2022-12-05T01:25:47.356Z,-0.66
2022-12-05T01:28:20.117Z,-0.66
2022-12-05T01:30:51.023Z,-0.66
2022-12-05T01:33:21.236Z,-0.66
2022-12-05T01:35:54.808Z,-0.66
2022-12-05T01:38:26.796Z,-0.65
2022-12-05T01:41:04.923Z,-0.66
2022-12-05T01:43:38.840Z,-0.69
2022-12-05T01:46:09.465Z,-0.70
2022-12-05T01:48:40.028Z,-0.69
2022-12-05T01:51:09.818Z,-0.67
2022-12-05T01:53:42.999Z,-0.68
2022-12-05T01:56:13.915Z,-0.67
2022-12-05T01:58:46.713Z,-0.66
2022-12-05T02:01:20.989Z,-0.67
2022-12-05T02:03:57.311Z,-0.67
2022-12-05T02:06:33.589Z,-0.68
2022-12-05T02:09:05.618Z,-0.67
2022-12-05T02:11:44.024Z,-0.67
2022-12-05T02:14:34.071Z,-0.67
2022-12-05T02:17:37.546Z,-0.67
2022-12-05T02:20:36.705Z,-0.70
2022-12-05T02:23:54.354Z,-0.74
2022-12-05T02:26:54.612Z,-0.74
2022-12-05T02:30:01.836Z,-0.72
2022-12-05T02:33:04.956Z,-0.73
2022-12-05T02:36:30.967Z,-0.73
2022-12-05T02:39:27.412Z,-0.76
2022-12-05T02:42:27.155Z,-0.77
2022-12-05T02:45:15.145Z,-0.77
2022-12-05T02:47:56.330Z,-0.77
2022-12-05T02:50:40.216Z,-0.79
2022-12-05T02:53:19.565Z,-0.80
2022-12-05T02:55:53.812Z,-0.80
2022-12-05T02:58:36.737Z,-0.80
2022-12-05T03:01:10.853Z,-0.81
2022-12-05T03:03:45.756Z,-0.81
2022-12-05T03:13:15.896Z,-0.76
2022-12-05T03:15:55.721Z,-0.82
2022-12-05T03:18:38.555Z,-0.85
2022-12-05T03:21:35.219Z,-0.86
2022-12-05T03:24:17.251Z,-0.85
2022-12-05T03:27:12.208Z,-0.85
2022-12-05T03:30:04.855Z,-0.89
2022-12-05T03:33:13.284Z,-0.90
2022-12-05T03:35:49.521Z,-0.88
2022-12-05T03:38:53.412Z,-0.88
2022-12-05T03:41:42.475Z,-0.88
2022-12-05T03:44:42.482Z,-0.87
2022-12-05T03:47:23.498Z,-0.89
2022-12-05T03:50:04.951Z,-0.87
2022-12-05T03:53:18.471Z,-0.85
2022-12-05T03:55:59.126Z,-0.86
2022-12-05T03:58:52.839Z,-0.88
2022-12-05T04:01:34.765Z,-0.87
2022-12-05T04:04:25.611Z,-0.82
2022-12-05T04:06:58.754Z,-0.79
2022-12-05T04:09:56.640Z,-0.79
2022-12-05T04:12:29.863Z,-0.83
2022-12-05T04:15:20.145Z,-0.84
2022-12-05T04:17:59.025Z,-0.83
2022-12-05T04:20:50.444Z,-0.83
2022-12-05T04:23:21.641Z,-0.85
2022-12-05T04:26:04.886Z,-0.86
2022-12-05T04:28:37.626Z,-0.87
2022-12-05T04:31:15.427Z,-0.85
2022-12-05T04:34:01.391Z,-0.85
2022-12-05T04:36:40.832Z,-0.87
2022-12-05T04:39:26.563Z,-0.89
2022-12-05T04:42:02.459Z,-0.88
2022-12-05T04:44:37.152Z,-0.88
2022-12-05T04:47:11.388Z,-0.87
2022-12-05T04:49:54.552Z,-0.85
2022-12-05T04:52:24.198Z,-0.83
2022-12-05T04:55:02.244Z,-0.87
2022-12-05T04:57:41.167Z,-0.91
2022-12-05T05:00:11.339Z,-0.93
2022-12-05T05:02:48.714Z,-0.93
2022-12-05T05:05:20.159Z,-0.94
2022-12-05T05:07:54.964Z,-0.96
2022-12-05T05:10:45.769Z,-0.96
2022-12-05T05:13:17.769Z,-0.97
2022-12-05T05:15:47.871Z,-0.95
2022-12-05T05:18:17.101Z,-0.92
2022-12-05T05:20:45.956Z,-0.88
2022-12-05T05:23:15.212Z,-0.84
2022-12-05T05:25:44.733Z,-0.80
2022-12-05T05:28:13.495Z,-0.81
2022-12-05T05:30:44.621Z,-0.85
2022-12-05T05:33:16.781Z,-0.88
2022-12-05T05:35:46.256Z,-0.88
2022-12-05T05:38:18.020Z,-0.88
2022-12-05T05:40:48.361Z,-0.88
2022-12-05T05:43:20.956Z,-0.88
2022-12-05T05:45:49.428Z,-0.90
2022-12-05T05:48:23.208Z,-0.94
2022-12-05T05:51:00.398Z,-0.93
2022-12-05T05:53:38.834Z,-0.91
2022-12-05T05:56:32.955Z,-0.89
2022-12-05T05:59:05.836Z,-0.88
2022-12-05T06:01:37.808Z,-0.86
2022-12-05T06:04:08.581Z,-0.86
2022-12-05T06:06:37.622Z,-0.86
2022-12-05T06:09:10.800Z,-0.86
2022-12-05T06:11:43.337Z,-0.85
2022-12-05T06:14:24.999Z,-0.84
2022-12-05T06:17:28.599Z,-0.82
2022-12-05T06:20:36.306Z,-0.84
2022-12-05T06:23:42.750Z,-0.85
2022-12-05T06:26:52.014Z,-0.84
2022-12-05T06:29:52.574Z,-0.84
2022-12-05T06:32:48.477Z,-0.82
2022-12-05T06:35:32.906Z,-0.81
2022-12-05T06:38:13.212Z,-0.80
2022-12-05T06:41:00.226Z,-0.80
2022-12-05T06:43:40.324Z,-0.79
2022-12-05T06:46:19.726Z,-0.77
2022-12-05T06:49:03.814Z,-0.75
2022-12-05T06:51:44.000Z,-0.74
2022-12-05T06:54:25.347Z,-0.73
2022-12-05T06:57:03.612Z,-0.72
2022-12-05T06:59:43.260Z,-0.72
2022-12-05T07:02:21.924Z,-0.71
2022-12-05T07:05:07.421Z,-0.69
2022-12-05T07:07:54.995Z,-0.71
2022-12-05T07:10:38.927Z,-0.73
2022-12-05T07:13:24.075Z,-0.72
2022-12-05T07:16:04.567Z,-0.71
2022-12-05T07:18:42.661Z,-0.71
2022-12-05T07:21:22.711Z,-0.72
2022-12-05T07:24:07.941Z,-0.72
2022-12-05T07:26:46.138Z,-0.72
2022-12-05T07:29:25.631Z,-0.70
2022-12-05T07:32:01.302Z,-0.67
2022-12-05T07:34:47.768Z,-0.65
2022-12-05T07:38:29.573Z,-0.64
2022-12-05T07:41:39.879Z,-0.63
2022-12-05T07:44:54.612Z,-0.62
2022-12-05T07:48:13.236Z,-0.61
2022-12-05T07:51:19.201Z,-0.59
2022-12-05T07:54:19.431Z,-0.56
2022-12-05T07:57:19.319Z,-0.58
2022-12-05T08:00:21.617Z,-0.58
2022-12-05T08:03:24.705Z,-0.56
2022-12-05T08:06:27.922Z,-0.55
2022-12-05T08:09:31.112Z,-0.57
2022-12-05T08:12:31.708Z,-0.57
2022-12-05T08:15:34.127Z,-0.58
2022-12-05T08:18:27.795Z,-0.60
2022-12-05T08:21:27.785Z,-0.59
2022-12-05T08:24:28.538Z,-0.57
2022-12-05T08:27:28.425Z,-0.57
2022-12-05T08:30:29.207Z,-0.58
2022-12-05T08:34:11.402Z,-0.58
2022-12-05T08:38:23.790Z,-0.56
2022-12-05T08:47:03.538Z,-0.55
2022-12-05T08:49:21.796Z,-0.52
2022-12-05T09:00:09.186Z,-0.44
2022-12-05T09:14:43.090Z,-0.32
2022-12-05T09:22:46.468Z,-0.31
2022-12-05T09:25:22.563Z,-0.35
2022-12-05T09:28:17.920Z,-0.35
2022-12-05T09:31:16.390Z,-0.38
2022-12-05T09:34:26.754Z,-0.36
2022-12-05T09:37:39.333Z,-0.33
2022-12-05T09:45:11.684Z,-0.24
2022-12-05T09:48:15.083Z,-0.17
2022-12-05T09:50:51.728Z,-0.12
2022-12-05T09:56:34.673Z,-0.11
2022-12-05T09:59:35.641Z,-0.13
2022-12-05T10:07:14.505Z,-0.10
2022-12-05T10:11:06.589Z,-0.07
2022-12-05T10:23:58.971Z,-0.12
2022-12-05T10:26:43.261Z,-0.09
2022-12-05T10:30:00.241Z,-0.12
2022-12-05T10:32:59.654Z,-0.10
2022-12-05T10:39:42.525Z,-0.06
2022-12-05T10:42:47.803Z,-0.04
2022-12-05T10:45:46.519Z,-0.02
2022-12-05T10:48:38.431Z,-0.03
2022-12-05T10:51:45.210Z,-0.04
2022-12-05T10:54:52.873Z,-0.04
2022-12-05T10:57:47.537Z,-0.02
2022-12-05T11:01:01.462Z,-0.02
2022-12-05T11:13:09.120Z,0.09
2022-12-05T11:16:48.888Z,0.08
2022-12-05T11:20:16.257Z,0.04
2022-12-05T11:23:39.645Z,0.02
2022-12-05T11:26:59.077Z,0.00
2022-12-05T11:30:11.365Z,-0.03
2022-12-05T11:33:30.665Z,-0.00
2022-12-05T11:36:49.981Z,0.04
2022-12-05T11:39:55.532Z,0.07
2022-12-05T11:43:17.413Z,0.09
2022-12-05T11:46:14.880Z,0.08
2022-12-05T11:49:00.952Z,0.08
2022-12-05T11:52:13.130Z,0.09
2022-12-05T11:55:07.098Z,0.07
2022-12-05T11:58:04.204Z,0.03
2022-12-05T12:00:55.424Z,0.04
2022-12-05T12:03:55.352Z,0.09
2022-12-05T12:07:17.933Z,0.11
2022-12-05T12:09:53.607Z,0.11
2022-12-05T12:12:58.783Z,0.13
2022-12-05T12:16:02.706Z,0.15
2022-12-05T12:19:42.940Z,0.17
2022-12-05T12:23:18.131Z,0.19
2022-12-05T12:26:13.025Z,0.22
2022-12-05T12:29:14.665Z,0.24
2022-12-05T12:32:16.308Z,0.24
2022-12-05T12:39:25.268Z,0.29
2022-12-05T12:43:00.018Z,0.29
2022-12-05T12:46:19.771Z,0.31
2022-12-05T12:49:53.784Z,0.30
2022-12-05T12:55:02.904Z,0.29
2022-12-05T12:57:25.663Z,0.28
2022-12-05T13:00:53.294Z,0.25
2022-12-05T13:09:51.393Z,0.28
2022-12-05T13:46:44.409Z,0.33
2022-12-05T13:54:05.533Z,0.33
2022-12-05T13:57:24.425Z,0.33
2022-12-05T14:15:27.957Z,0.27
2022-12-05T14:22:23.639Z,0.25
2022-12-05T14:28:09.509Z,0.25
2022-12-05T14:30:13.199Z,0.24
2022-12-05T14:34:44.403Z,0.27
2022-12-05T14:41:11.114Z,0.26
2022-12-05T14:44:56.951Z,0.24
2022-12-05T14:51:55.903Z,0.21
2022-12-05T14:55:45.437Z,0.21
2022-12-05T14:59:08.929Z,0.22
2022-12-05T15:13:24.478Z,0.29
2022-12-05T15:22:35.303Z,0.29
2022-12-05T15:24:18.162Z,0.28
2022-12-05T15:27:29.195Z,0.27
2022-12-05T15:34:50.816Z,0.24
2022-12-05T15:37:59.319Z,0.26
2022-12-05T15:40:41.507Z,0.28
2022-12-05T15:43:27.794Z,0.30
2022-12-05T15:46:15.654Z,0.29
2022-12-05T15:48:46.208Z,0.26
2022-12-05T15:51:25.345Z,0.25
2022-12-05T15:54:35.733Z,0.26
2022-12-05T15:57:23.514Z,0.28
2022-12-05T16:00:28.519Z,0.28
2022-12-05T16:20:36.987Z,0.29
2022-12-05T17:07:47.454Z,0.44
2022-12-05T17:18:44.063Z,0.40
2022-12-05T17:22:01.666Z,0.42
2022-12-05T18:06:34.333Z,0.46
2022-12-05T18:07:26.665Z,0.40
2022-12-05T18:09:16.813Z,0.46
2022-12-05T18:11:48.202Z,0.48
2022-12-05T18:14:38.834Z,0.48
2022-12-05T18:26:14.639Z,0.51
2022-12-05T18:28:59.965Z,0.51
2022-12-05T18:32:03.992Z,0.56
2022-12-05T18:34:41.032Z,0.60
2022-12-05T18:37:23.019Z,0.62
2022-12-05T18:40:05.728Z,0.63
2022-12-05T18:42:40.048Z,0.64
2022-12-05T18:45:12.928Z,0.63
2022-12-05T18:47:43.806Z,0.62
2022-12-05T18:50:15.336Z,0.63
2022-12-05T18:52:44.460Z,0.64
2022-12-05T18:55:20.818Z,0.63
2022-12-05T18:58:02.941Z,0.62
2022-12-05T19:00:38.800Z,0.60
2022-12-05T19:03:21.696Z,0.60
2022-12-05T19:06:12.653Z,0.56
2022-12-05T19:08:57.728Z,0.53
2022-12-05T19:11:47.575Z,0.52
2022-12-05T19:14:20.690Z,0.54
2022-12-05T19:17:03.123Z,0.56
2022-12-05T19:20:10.194Z,0.56
2022-12-05T19:22:49.567Z,0.54
2022-12-05T19:25:26.153Z,0.54
2022-12-05T19:28:03.470Z,0.51
2022-12-05T19:30:40.246Z,0.50
2022-12-05T19:33:23.793Z,0.51
2022-12-05T19:36:24.221Z,0.51
2022-12-05T19:39:05.570Z,0.51
2022-12-05T19:41:50.077Z,0.52
2022-12-05T19:44:26.579Z,0.51
2022-12-05T19:47:06.200Z,0.51
2022-12-05T19:49:49.870Z,0.52
2022-12-05T19:52:28.387Z,0.54
2022-12-05T19:55:03.826Z,0.54
2022-12-05T19:57:44.889Z,0.54
2022-12-05T20:00:22.255Z,0.55
2022-12-05T20:02:57.652Z,0.54
2022-12-05T20:05:33.144Z,0.52
2022-12-05T20:08:17.899Z,0.54
2022-12-05T20:10:57.413Z,0.54
2022-12-05T20:16:32.568Z,0.54
2022-12-05T20:19:21.284Z,0.53
2022-12-05T20:22:35.001Z,0.51
2022-12-05T20:25:35.135Z,0.51
2022-12-05T20:28:48.148Z,0.52
2022-12-05T20:31:55.220Z,0.54
2022-12-05T20:35:01.077Z,0.54
2022-12-05T20:38:07.149Z,0.53
2022-12-05T20:41:15.802Z,0.54
2022-12-05T20:43:59.271Z,0.54
2022-12-05T20:46:39.367Z,0.55
2022-12-05T20:49:44.593Z,0.55
2022-12-05T20:53:00.382Z,0.54
2022-12-05T20:56:25.829Z,0.56
2022-12-05T20:59:30.313Z,0.58
2022-12-05T21:02:04.866Z,0.60
2022-12-05T21:04:41.287Z,0.60
2022-12-05T21:07:12.249Z,0.58
2022-12-05T21:09:43.648Z,0.58
2022-12-05T21:12:14.790Z,0.60
2022-12-05T21:14:50.197Z,0.63
2022-12-05T21:17:51.697Z,0.64
2022-12-05T21:20:35.351Z,0.65
2022-12-05T21:23:38.817Z,0.62
2022-12-05T21:26:43.269Z,0.64
2022-12-05T21:45:29.506Z,0.62
2022-12-05T21:48:43.536Z,0.63
2022-12-05T21:51:41.632Z,0.65
2022-12-05T21:54:19.942Z,0.65
2022-12-05T21:57:48.489Z,0.62
2022-12-05T22:00:32.964Z,0.63
2022-12-05T22:06:45.762Z,0.63
2022-12-05T22:09:20.520Z,0.62
2022-12-05T22:12:04.395Z,0.62
2022-12-05T22:16:07.006Z,0.61
2022-12-05T22:22:06.711Z,0.60
2022-12-05T22:31:37.413Z,0.58
2022-12-05T22:34:43.230Z,0.57
2022-12-05T22:37:22.124Z,0.58
2022-12-05T22:39:52.965Z,0.60
2022-12-05T22:42:22.193Z,0.59
2022-12-05T22:44:57.778Z,0.59
2022-12-05T22:47:29.433Z,0.57
2022-12-05T22:49:58.629Z,0.58
2022-12-05T22:52:27.626Z,0.55
2022-12-05T22:54:58.052Z,0.57
2022-12-05T22:57:28.204Z,0.59
2022-12-05T22:59:58.502Z,0.59
2022-12-05T23:02:48.786Z,0.58
2022-12-05T23:05:21.191Z,0.55
2022-12-05T23:07:54.092Z,0.54
2022-12-05T23:10:24.480Z,0.53
2022-12-05T23:12:56.056Z,0.55
2022-12-05T23:15:28.887Z,0.57
2022-12-05T23:17:58.441Z,0.58
2022-12-05T23:20:29.622Z,0.60
2022-12-05T23:23:03.084Z,0.60
2022-12-05T23:25:33.902Z,0.58
2022-12-05T23:28:03.774Z,0.58
2022-12-05T23:30:33.348Z,0.59
2022-12-05T23:33:02.098Z,0.59
2022-12-05T23:35:32.398Z,0.60
2022-12-05T23:38:04.222Z,0.58
2022-12-05T23:40:38.346Z,0.56
2022-12-05T23:43:15.137Z,0.56
2022-12-05T23:45:51.152Z,0.57
2022-12-05T23:48:26.852Z,0.58
2022-12-05T23:51:04.765Z,0.57
2022-12-05T23:53:38.889Z,0.56
2022-12-05T23:56:09.136Z,0.54
2022-12-05T23:58:38.257Z,0.52
